sensor_id;sensor_type;location;lat;lon;timestamp;P1;durP1;ratioP1;P2;durP2;ratioP2
76552;SDS011;65395;53.168;18.156;2022-12-10T00:01:46;61.60;;;23.90;;
76552;SDS011;65395;53.168;18.156;2022-12-10T00:04:13;69.00;;;26.80;;
76552;SDS011;65395;53.168;18.156;2022-12-10T00:06:40;111.60;;;35.90;;
76552;SDS011;65395;53.168;18.156;2022-12-10T00:09:09;79.50;;;28.70;;
76552;SDS011;65395;53.168;18.156;2022-12-10T00:11:38;71.10;;;28.00;;
76552;SDS011;65395;53.168;18.156;2022-12-10T00:14:06;71.50;;;27.80;;
76552;SDS011;65395;53.168;18.156;2022-12-10T00:16:33;65.50;;;27.00;;
76552;SDS011;65395;53.168;18.156;2022-12-10T00:19:00;66.00;;;27.40;;
76552;SDS011;65395;53.168;18.156;2022-12-10T00:21:29;68.10;;;26.90;;
76552;SDS011;65395;53.168;18.156;2022-12-10T00:23:58;64.20;;;26.70;;
76552;SDS011;65395;53.168;18.156;2022-12-10T00:26:26;66.70;;;27.70;;
76552;SDS011;65395;53.168;18.156;2022-12-10T00:28:55;60.00;;;24.90;;
76552;SDS011;65395;53.168;18.156;2022-12-10T00:31:24;67.30;;;25.20;;
76552;SDS011;65395;53.168;18.156;2022-12-10T00:33:53;80.00;;;27.90;;
76552;SDS011;65395;53.168;18.156;2022-12-10T00:36:22;71.60;;;27.70;;
76552;SDS011;65395;53.168;18.156;2022-12-10T00:38:50;64.50;;;25.20;;
76552;SDS011;65395;53.168;18.156;2022-12-10T00:41:17;59.90;;;25.20;;
76552;SDS011;65395;53.168;18.156;2022-12-10T00:43:44;65.20;;;25.90;;
76552;SDS011;65395;53.168;18.156;2022-12-10T00:46:12;75.30;;;27.80;;
76552;SDS011;65395;53.168;18.156;2022-12-10T00:48:41;65.10;;;25.30;;
76552;SDS011;65395;53.168;18.156;2022-12-10T00:51:09;61.00;;;24.90;;
76552;SDS011;65395;53.168;18.156;2022-12-10T00:53:38;70.90;;;27.80;;
76552;SDS011;65395;53.168;18.156;2022-12-10T00:56:08;69.20;;;27.50;;
76552;SDS011;65395;53.168;18.156;2022-12-10T00:58:36;73.70;;;27.90;;
76552;SDS011;65395;53.168;18.156;2022-12-10T01:01:06;76.50;;;28.40;;
76552;SDS011;65395;53.168;18.156;2022-12-10T01:03:45;77.60;;;27.90;;
76552;SDS011;65395;53.168;18.156;2022-12-10T01:06:14;66.40;;;26.50;;
76552;SDS011;65395;53.168;18.156;2022-12-10T01:08:46;72.60;;;27.80;;
76552;SDS011;65395;53.168;18.156;2022-12-10T01:11:15;69.70;;;26.40;;
76552;SDS011;65395;53.168;18.156;2022-12-10T01:13:43;75.50;;;29.70;;
76552;SDS011;65395;53.168;18.156;2022-12-10T01:16:13;68.50;;;27.60;;
76552;SDS011;65395;53.168;18.156;2022-12-10T01:18:41;71.80;;;27.90;;
76552;SDS011;65395;53.168;18.156;2022-12-10T01:21:09;67.10;;;25.80;;
76552;SDS011;65395;53.168;18.156;2022-12-10T01:23:39;69.00;;;26.20;;
76552;SDS011;65395;53.168;18.156;2022-12-10T01:26:09;64.90;;;25.60;;
76552;SDS011;65395;53.168;18.156;2022-12-10T01:28:38;61.90;;;23.80;;
76552;SDS011;65395;53.168;18.156;2022-12-10T01:31:09;64.40;;;24.40;;
76552;SDS011;65395;53.168;18.156;2022-12-10T01:33:38;65.20;;;24.90;;
76552;SDS011;65395;53.168;18.156;2022-12-10T01:36:09;63.10;;;25.40;;
76552;SDS011;65395;53.168;18.156;2022-12-10T01:38:38;60.70;;;23.30;;
76552;SDS011;65395;53.168;18.156;2022-12-10T01:41:06;64.10;;;24.90;;
76552;SDS011;65395;53.168;18.156;2022-12-10T01:46:16;68.40;;;25.20;;
76552;SDS011;65395;53.168;18.156;2022-12-10T01:48:43;74.20;;;27.80;;
76552;SDS011;65395;53.168;18.156;2022-12-10T01:51:10;67.20;;;26.30;;
76552;SDS011;65395;53.168;18.156;2022-12-10T01:53:38;60.80;;;24.50;;
76552;SDS011;65395;53.168;18.156;2022-12-10T01:56:06;59.90;;;24.30;;
76552;SDS011;65395;53.168;18.156;2022-12-10T01:58:33;68.70;;;24.70;;
76552;SDS011;65395;53.168;18.156;2022-12-10T02:01:04;61.50;;;25.20;;
76552;SDS011;65395;53.168;18.156;2022-12-10T02:09:19;61.90;;;24.30;;
76552;SDS011;65395;53.168;18.156;2022-12-10T02:12:07;60.10;;;22.80;;
76552;SDS011;65395;53.168;18.156;2022-12-10T02:14:52;59.10;;;23.80;;
76552;SDS011;65395;53.168;18.156;2022-12-10T02:17:27;61.90;;;23.80;;
76552;SDS011;65395;53.168;18.156;2022-12-10T02:20:08;59.10;;;23.30;;
76552;SDS011;65395;53.168;18.156;2022-12-10T02:22:48;57.80;;;23.20;;
76552;SDS011;65395;53.168;18.156;2022-12-10T02:25:32;59.50;;;23.60;;
76552;SDS011;65395;53.168;18.156;2022-12-10T02:28:13;59.20;;;24.20;;
76552;SDS011;65395;53.168;18.156;2022-12-10T02:30:52;53.80;;;23.00;;
76552;SDS011;65395;53.168;18.156;2022-12-10T02:33:20;52.10;;;22.40;;
76552;SDS011;65395;53.168;18.156;2022-12-10T02:35:50;62.80;;;24.50;;
76552;SDS011;65395;53.168;18.156;2022-12-10T02:38:22;71.40;;;26.20;;
76552;SDS011;65395;53.168;18.156;2022-12-10T02:40:55;61.40;;;23.40;;
76552;SDS011;65395;53.168;18.156;2022-12-10T02:43:26;51.20;;;21.10;;
76552;SDS011;65395;53.168;18.156;2022-12-10T02:45:56;55.60;;;23.00;;
76552;SDS011;65395;53.168;18.156;2022-12-10T02:48:25;55.50;;;21.70;;
76552;SDS011;65395;53.168;18.156;2022-12-10T02:50:53;54.70;;;22.20;;
76552;SDS011;65395;53.168;18.156;2022-12-10T02:53:19;53.30;;;22.00;;
76552;SDS011;65395;53.168;18.156;2022-12-10T02:56:08;54.30;;;21.40;;
76552;SDS011;65395;53.168;18.156;2022-12-10T03:04:33;47.10;;;20.40;;
76552;SDS011;65395;53.168;18.156;2022-12-10T03:07:10;56.30;;;23.20;;
76552;SDS011;65395;53.168;18.156;2022-12-10T03:09:46;50.90;;;21.40;;
76552;SDS011;65395;53.168;18.156;2022-12-10T03:12:20;44.90;;;19.50;;
76552;SDS011;65395;53.168;18.156;2022-12-10T03:14:51;48.00;;;20.50;;
76552;SDS011;65395;53.168;18.156;2022-12-10T03:17:20;45.40;;;20.40;;
76552;SDS011;65395;53.168;18.156;2022-12-10T03:19:48;45.50;;;19.70;;
76552;SDS011;65395;53.168;18.156;2022-12-10T03:22:18;50.80;;;20.90;;
76552;SDS011;65395;53.168;18.156;2022-12-10T03:24:46;44.90;;;20.00;;
76552;SDS011;65395;53.168;18.156;2022-12-10T03:27:14;45.80;;;20.00;;
76552;SDS011;65395;53.168;18.156;2022-12-10T03:29:45;41.50;;;18.40;;
76552;SDS011;65395;53.168;18.156;2022-12-10T03:32:16;40.30;;;18.70;;
76552;SDS011;65395;53.168;18.156;2022-12-10T03:34:44;44.80;;;18.20;;
76552;SDS011;65395;53.168;18.156;2022-12-10T03:37:12;60.70;;;22.80;;
76552;SDS011;65395;53.168;18.156;2022-12-10T03:39:40;44.60;;;18.90;;
76552;SDS011;65395;53.168;18.156;2022-12-10T03:42:09;42.90;;;18.20;;
76552;SDS011;65395;53.168;18.156;2022-12-10T03:44:37;37.70;;;17.70;;
76552;SDS011;65395;53.168;18.156;2022-12-10T03:47:07;39.00;;;17.40;;
76552;SDS011;65395;53.168;18.156;2022-12-10T03:49:36;46.10;;;19.00;;
76552;SDS011;65395;53.168;18.156;2022-12-10T03:52:03;40.10;;;18.30;;
76552;SDS011;65395;53.168;18.156;2022-12-10T03:54:30;44.20;;;18.60;;
76552;SDS011;65395;53.168;18.156;2022-12-10T03:56:56;42.30;;;17.80;;
76552;SDS011;65395;53.168;18.156;2022-12-10T03:59:23;38.70;;;17.60;;
76552;SDS011;65395;53.168;18.156;2022-12-10T04:01:50;40.80;;;17.20;;
76552;SDS011;65395;53.168;18.156;2022-12-10T04:04:16;48.40;;;19.40;;
76552;SDS011;65395;53.168;18.156;2022-12-10T04:06:43;44.80;;;18.70;;
76552;SDS011;65395;53.168;18.156;2022-12-10T04:09:12;39.30;;;17.50;;
76552;SDS011;65395;53.168;18.156;2022-12-10T04:11:41;39.90;;;16.70;;
76552;SDS011;65395;53.168;18.156;2022-12-10T04:14:10;43.10;;;18.00;;
76552;SDS011;65395;53.168;18.156;2022-12-10T04:16:47;40.80;;;17.80;;
76552;SDS011;65395;53.168;18.156;2022-12-10T04:19:15;39.90;;;17.70;;
76552;SDS011;65395;53.168;18.156;2022-12-10T04:21:43;42.80;;;17.90;;
76552;SDS011;65395;53.168;18.156;2022-12-10T04:24:22;39.60;;;17.80;;
76552;SDS011;65395;53.168;18.156;2022-12-10T04:27:03;41.70;;;17.20;;
76552;SDS011;65395;53.168;18.156;2022-12-10T04:29:32;39.60;;;17.50;;
76552;SDS011;65395;53.168;18.156;2022-12-10T04:31:59;47.00;;;19.30;;
76552;SDS011;65395;53.168;18.156;2022-12-10T04:34:26;41.70;;;18.10;;
76552;SDS011;65395;53.168;18.156;2022-12-10T04:36:53;40.10;;;19.00;;
76552;SDS011;65395;53.168;18.156;2022-12-10T04:39:20;41.70;;;17.60;;
76552;SDS011;65395;53.168;18.156;2022-12-10T04:41:47;41.40;;;18.30;;
76552;SDS011;65395;53.168;18.156;2022-12-10T04:44:16;40.80;;;17.90;;
76552;SDS011;65395;53.168;18.156;2022-12-10T04:46:44;46.70;;;19.40;;
76552;SDS011;65395;53.168;18.156;2022-12-10T04:49:12;42.40;;;18.10;;
76552;SDS011;65395;53.168;18.156;2022-12-10T04:51:39;44.10;;;18.00;;
76552;SDS011;65395;53.168;18.156;2022-12-10T04:54:07;42.50;;;18.60;;
76552;SDS011;65395;53.168;18.156;2022-12-10T04:56:33;48.70;;;19.60;;
76552;SDS011;65395;53.168;18.156;2022-12-10T04:59:01;50.70;;;19.90;;
76552;SDS011;65395;53.168;18.156;2022-12-10T05:01:29;51.40;;;20.50;;
76552;SDS011;65395;53.168;18.156;2022-12-10T05:03:59;44.20;;;16.90;;
76552;SDS011;65395;53.168;18.156;2022-12-10T05:06:28;47.40;;;19.70;;
76552;SDS011;65395;53.168;18.156;2022-12-10T05:08:55;40.60;;;18.20;;
76552;SDS011;65395;53.168;18.156;2022-12-10T05:11:24;40.90;;;18.30;;
76552;SDS011;65395;53.168;18.156;2022-12-10T05:13:52;40.50;;;18.20;;
76552;SDS011;65395;53.168;18.156;2022-12-10T05:16:20;41.60;;;18.70;;
76552;SDS011;65395;53.168;18.156;2022-12-10T05:18:48;38.80;;;18.10;;
76552;SDS011;65395;53.168;18.156;2022-12-10T05:21:17;42.00;;;18.10;;
76552;SDS011;65395;53.168;18.156;2022-12-10T05:23:46;38.30;;;16.60;;
76552;SDS011;65395;53.168;18.156;2022-12-10T05:26:18;55.20;;;22.10;;
76552;SDS011;65395;53.168;18.156;2022-12-10T05:28:48;44.10;;;18.40;;
76552;SDS011;65395;53.168;18.156;2022-12-10T05:31:18;39.10;;;17.90;;
76552;SDS011;65395;53.168;18.156;2022-12-10T05:33:48;39.10;;;17.20;;
76552;SDS011;65395;53.168;18.156;2022-12-10T05:36:16;35.00;;;16.60;;
76552;SDS011;65395;53.168;18.156;2022-12-10T05:38:45;35.70;;;15.80;;
76552;SDS011;65395;53.168;18.156;2022-12-10T05:41:13;36.10;;;16.20;;
76552;SDS011;65395;53.168;18.156;2022-12-10T05:43:43;37.30;;;17.00;;
76552;SDS011;65395;53.168;18.156;2022-12-10T05:46:11;44.20;;;20.70;;
76552;SDS011;65395;53.168;18.156;2022-12-10T05:48:40;41.90;;;18.50;;
76552;SDS011;65395;53.168;18.156;2022-12-10T05:51:08;40.10;;;16.40;;
76552;SDS011;65395;53.168;18.156;2022-12-10T05:53:37;42.50;;;18.60;;
76552;SDS011;65395;53.168;18.156;2022-12-10T05:56:06;38.50;;;17.50;;
76552;SDS011;65395;53.168;18.156;2022-12-10T05:58:34;37.00;;;16.80;;
76552;SDS011;65395;53.168;18.156;2022-12-10T06:01:06;38.60;;;16.60;;
76552;SDS011;65395;53.168;18.156;2022-12-10T06:03:35;33.90;;;15.40;;
76552;SDS011;65395;53.168;18.156;2022-12-10T06:06:03;35.30;;;16.20;;
76552;SDS011;65395;53.168;18.156;2022-12-10T06:08:31;37.00;;;16.30;;
76552;SDS011;65395;53.168;18.156;2022-12-10T06:11:00;38.80;;;17.40;;
76552;SDS011;65395;53.168;18.156;2022-12-10T06:13:28;40.70;;;18.00;;
76552;SDS011;65395;53.168;18.156;2022-12-10T06:15:55;33.10;;;15.30;;
76552;SDS011;65395;53.168;18.156;2022-12-10T06:18:22;38.10;;;17.60;;
76552;SDS011;65395;53.168;18.156;2022-12-10T06:20:49;34.30;;;15.60;;
76552;SDS011;65395;53.168;18.156;2022-12-10T06:23:16;33.20;;;14.60;;
76552;SDS011;65395;53.168;18.156;2022-12-10T06:25:43;38.40;;;15.90;;
76552;SDS011;65395;53.168;18.156;2022-12-10T06:28:09;33.80;;;15.00;;
76552;SDS011;65395;53.168;18.156;2022-12-10T06:30:36;33.20;;;15.30;;
76552;SDS011;65395;53.168;18.156;2022-12-10T06:33:03;35.50;;;16.70;;
76552;SDS011;65395;53.168;18.156;2022-12-10T06:35:30;40.20;;;17.90;;
76552;SDS011;65395;53.168;18.156;2022-12-10T06:37:57;32.60;;;15.50;;
76552;SDS011;65395;53.168;18.156;2022-12-10T06:40:23;39.10;;;17.70;;
76552;SDS011;65395;53.168;18.156;2022-12-10T06:42:51;40.80;;;19.90;;
76552;SDS011;65395;53.168;18.156;2022-12-10T06:45:18;37.30;;;17.70;;
76552;SDS011;65395;53.168;18.156;2022-12-10T06:47:45;46.90;;;21.40;;
76552;SDS011;65395;53.168;18.156;2022-12-10T06:50:12;45.90;;;19.30;;
76552;SDS011;65395;53.168;18.156;2022-12-10T06:52:39;37.80;;;16.70;;
76552;SDS011;65395;53.168;18.156;2022-12-10T06:55:06;37.20;;;17.10;;
76552;SDS011;65395;53.168;18.156;2022-12-10T06:57:33;40.50;;;16.80;;
76552;SDS011;65395;53.168;18.156;2022-12-10T07:00:00;41.60;;;18.10;;
76552;SDS011;65395;53.168;18.156;2022-12-10T07:02:26;37.00;;;17.40;;
76552;SDS011;65395;53.168;18.156;2022-12-10T07:04:53;37.80;;;17.60;;
76552;SDS011;65395;53.168;18.156;2022-12-10T07:07:22;38.30;;;17.50;;
76552;SDS011;65395;53.168;18.156;2022-12-10T07:09:49;37.50;;;16.70;;
76552;SDS011;65395;53.168;18.156;2022-12-10T07:12:16;37.00;;;15.50;;
76552;SDS011;65395;53.168;18.156;2022-12-10T07:14:43;50.00;;;19.60;;
76552;SDS011;65395;53.168;18.156;2022-12-10T07:17:09;40.70;;;17.90;;
76552;SDS011;65395;53.168;18.156;2022-12-10T07:19:36;36.10;;;16.30;;
76552;SDS011;65395;53.168;18.156;2022-12-10T07:22:03;39.70;;;17.80;;
76552;SDS011;65395;53.168;18.156;2022-12-10T07:24:29;40.40;;;17.80;;
76552;SDS011;65395;53.168;18.156;2022-12-10T07:26:56;37.30;;;17.40;;
76552;SDS011;65395;53.168;18.156;2022-12-10T07:29:23;36.60;;;17.20;;
76552;SDS011;65395;53.168;18.156;2022-12-10T07:31:50;38.80;;;17.90;;
76552;SDS011;65395;53.168;18.156;2022-12-10T07:34:16;39.00;;;16.90;;
76552;SDS011;65395;53.168;18.156;2022-12-10T07:36:43;40.80;;;17.70;;
76552;SDS011;65395;53.168;18.156;2022-12-10T07:39:10;45.40;;;20.70;;
76552;SDS011;65395;53.168;18.156;2022-12-10T07:41:44;45.00;;;18.60;;
76552;SDS011;65395;53.168;18.156;2022-12-10T07:44:16;54.90;;;21.60;;
76552;SDS011;65395;53.168;18.156;2022-12-10T07:46:44;42.10;;;19.10;;
76552;SDS011;65395;53.168;18.156;2022-12-10T07:49:11;42.80;;;18.60;;
76552;SDS011;65395;53.168;18.156;2022-12-10T07:51:38;41.60;;;17.30;;
76552;SDS011;65395;53.168;18.156;2022-12-10T07:54:05;38.50;;;16.50;;
76552;SDS011;65395;53.168;18.156;2022-12-10T07:56:32;43.30;;;18.90;;
76552;SDS011;65395;53.168;18.156;2022-12-10T07:58:58;40.80;;;17.60;;
76552;SDS011;65395;53.168;18.156;2022-12-10T08:01:25;42.20;;;17.90;;
76552;SDS011;65395;53.168;18.156;2022-12-10T08:03:53;38.90;;;17.50;;
76552;SDS011;65395;53.168;18.156;2022-12-10T08:06:23;41.00;;;17.50;;
76552;SDS011;65395;53.168;18.156;2022-12-10T08:08:51;35.50;;;16.60;;
76552;SDS011;65395;53.168;18.156;2022-12-10T08:11:18;43.20;;;18.10;;
76552;SDS011;65395;53.168;18.156;2022-12-10T08:13:46;49.20;;;19.60;;
76552;SDS011;65395;53.168;18.156;2022-12-10T08:16:17;40.60;;;17.20;;
76552;SDS011;65395;53.168;18.156;2022-12-10T08:18:45;43.20;;;17.70;;
76552;SDS011;65395;53.168;18.156;2022-12-10T08:21:14;36.70;;;16.80;;
76552;SDS011;65395;53.168;18.156;2022-12-10T08:23:43;42.20;;;17.60;;
76552;SDS011;65395;53.168;18.156;2022-12-10T08:26:15;35.90;;;16.20;;
76552;SDS011;65395;53.168;18.156;2022-12-10T08:28:44;41.30;;;18.10;;
76552;SDS011;65395;53.168;18.156;2022-12-10T08:31:12;42.40;;;18.30;;
76552;SDS011;65395;53.168;18.156;2022-12-10T08:33:40;42.00;;;17.70;;
76552;SDS011;65395;53.168;18.156;2022-12-10T08:36:08;38.00;;;16.50;;
76552;SDS011;65395;53.168;18.156;2022-12-10T08:38:38;42.80;;;17.90;;
76552;SDS011;65395;53.168;18.156;2022-12-10T08:41:07;40.30;;;18.10;;
76552;SDS011;65395;53.168;18.156;2022-12-10T08:43:37;36.80;;;16.10;;
76552;SDS011;65395;53.168;18.156;2022-12-10T08:46:04;44.90;;;18.20;;
76552;SDS011;65395;53.168;18.156;2022-12-10T08:48:31;40.00;;;16.70;;
76552;SDS011;65395;53.168;18.156;2022-12-10T08:50:58;36.50;;;16.20;;
76552;SDS011;65395;53.168;18.156;2022-12-10T08:53:25;33.00;;;14.70;;
76552;SDS011;65395;53.168;18.156;2022-12-10T08:55:52;35.20;;;15.70;;
76552;SDS011;65395;53.168;18.156;2022-12-10T08:58:20;36.90;;;14.30;;
76552;SDS011;65395;53.168;18.156;2022-12-10T09:00:48;31.10;;;15.30;;
76552;SDS011;65395;53.168;18.156;2022-12-10T09:03:15;36.40;;;15.60;;
76552;SDS011;65395;53.168;18.156;2022-12-10T09:05:42;30.90;;;13.70;;
76552;SDS011;65395;53.168;18.156;2022-12-10T09:08:09;34.20;;;14.30;;
76552;SDS011;65395;53.168;18.156;2022-12-10T09:10:37;32.30;;;13.40;;
76552;SDS011;65395;53.168;18.156;2022-12-10T09:13:05;30.70;;;13.80;;
76552;SDS011;65395;53.168;18.156;2022-12-10T09:15:32;28.60;;;13.40;;
76552;SDS011;65395;53.168;18.156;2022-12-10T09:17:59;30.10;;;13.40;;
76552;SDS011;65395;53.168;18.156;2022-12-10T09:20:25;25.50;;;11.80;;
76552;SDS011;65395;53.168;18.156;2022-12-10T09:22:52;25.60;;;11.00;;
76552;SDS011;65395;53.168;18.156;2022-12-10T09:25:19;24.50;;;11.10;;
76552;SDS011;65395;53.168;18.156;2022-12-10T09:27:47;25.90;;;10.90;;
76552;SDS011;65395;53.168;18.156;2022-12-10T09:30:15;26.00;;;12.20;;
76552;SDS011;65395;53.168;18.156;2022-12-10T09:32:42;21.60;;;10.20;;
76552;SDS011;65395;53.168;18.156;2022-12-10T09:35:09;21.70;;;10.50;;
76552;SDS011;65395;53.168;18.156;2022-12-10T09:37:36;20.90;;;9.40;;
76552;SDS011;65395;53.168;18.156;2022-12-10T09:40:03;18.90;;;8.70;;
76552;SDS011;65395;53.168;18.156;2022-12-10T09:45:20;21.90;;;9.10;;
76552;SDS011;65395;53.168;18.156;2022-12-10T09:50:57;20.20;;;9.00;;
76552;SDS011;65395;53.168;18.156;2022-12-10T09:53:31;20.70;;;9.80;;
76552;SDS011;65395;53.168;18.156;2022-12-10T09:55:59;19.80;;;9.10;;
76552;SDS011;65395;53.168;18.156;2022-12-10T09:58:26;20.20;;;9.40;;
76552;SDS011;65395;53.168;18.156;2022-12-10T10:00:56;22.00;;;10.20;;
76552;SDS011;65395;53.168;18.156;2022-12-10T10:03:25;22.90;;;10.20;;
76552;SDS011;65395;53.168;18.156;2022-12-10T10:05:53;17.80;;;8.90;;
76552;SDS011;65395;53.168;18.156;2022-12-10T10:08:27;22.00;;;10.10;;
76552;SDS011;65395;53.168;18.156;2022-12-10T10:11:05;21.30;;;9.90;;
76552;SDS011;65395;53.168;18.156;2022-12-10T10:13:39;19.30;;;9.70;;
76552;SDS011;65395;53.168;18.156;2022-12-10T10:18:52;22.10;;;10.40;;
76552;SDS011;65395;53.168;18.156;2022-12-10T10:21:27;21.20;;;10.10;;
76552;SDS011;65395;53.168;18.156;2022-12-10T10:23:57;22.60;;;10.10;;
76552;SDS011;65395;53.168;18.156;2022-12-10T10:26:25;22.70;;;9.90;;
76552;SDS011;65395;53.168;18.156;2022-12-10T10:28:55;20.80;;;9.40;;
76552;SDS011;65395;53.168;18.156;2022-12-10T10:31:28;23.10;;;9.80;;
76552;SDS011;65395;53.168;18.156;2022-12-10T10:33:58;21.60;;;10.20;;
76552;SDS011;65395;53.168;18.156;2022-12-10T10:36:29;24.90;;;11.40;;
76552;SDS011;65395;53.168;18.156;2022-12-10T10:41:47;21.80;;;10.60;;
76552;SDS011;65395;53.168;18.156;2022-12-10T10:44:19;23.60;;;11.30;;
76552;SDS011;65395;53.168;18.156;2022-12-10T10:46:50;22.30;;;10.70;;
76552;SDS011;65395;53.168;18.156;2022-12-10T10:49:25;18.60;;;9.80;;
76552;SDS011;65395;53.168;18.156;2022-12-10T10:51:58;20.50;;;9.40;;
76552;SDS011;65395;53.168;18.156;2022-12-10T10:54:38;21.00;;;9.70;;
76552;SDS011;65395;53.168;18.156;2022-12-10T10:57:12;17.40;;;8.90;;
76552;SDS011;65395;53.168;18.156;2022-12-10T10:59:46;21.70;;;9.50;;
76552;SDS011;65395;53.168;18.156;2022-12-10T11:02:16;20.30;;;8.80;;
76552;SDS011;65395;53.168;18.156;2022-12-10T11:04:52;17.60;;;8.10;;
76552;SDS011;65395;53.168;18.156;2022-12-10T11:07:23;17.70;;;8.20;;
76552;SDS011;65395;53.168;18.156;2022-12-10T11:10:00;15.20;;;7.60;;
76552;SDS011;65395;53.168;18.156;2022-12-10T11:12:37;15.80;;;7.20;;
76552;SDS011;65395;53.168;18.156;2022-12-10T11:15:27;16.80;;;7.60;;
76552;SDS011;65395;53.168;18.156;2022-12-10T11:18:01;18.80;;;8.50;;
76552;SDS011;65395;53.168;18.156;2022-12-10T11:20:30;16.30;;;8.20;;
76552;SDS011;65395;53.168;18.156;2022-12-10T11:23:01;17.00;;;7.30;;
76552;SDS011;65395;53.168;18.156;2022-12-10T11:28:27;14.40;;;7.30;;
76552;SDS011;65395;53.168;18.156;2022-12-10T11:34:02;13.80;;;7.00;;
76552;SDS011;65395;53.168;18.156;2022-12-10T11:36:48;14.20;;;7.10;;
76552;SDS011;65395;53.168;18.156;2022-12-10T11:39:33;14.00;;;6.90;;
76552;SDS011;65395;53.168;18.156;2022-12-10T11:42:18;12.40;;;5.80;;
76552;SDS011;65395;53.168;18.156;2022-12-10T11:45:00;10.10;;;5.10;;
76552;SDS011;65395;53.168;18.156;2022-12-10T11:47:49;16.60;;;6.70;;
76552;SDS011;65395;53.168;18.156;2022-12-10T11:53:15;13.00;;;6.40;;
76552;SDS011;65395;53.168;18.156;2022-12-10T11:55:59;13.40;;;6.90;;
76552;SDS011;65395;53.168;18.156;2022-12-10T12:04:19;14.00;;;7.00;;
76552;SDS011;65395;53.168;18.156;2022-12-10T12:07:11;15.40;;;6.40;;
76552;SDS011;65395;53.168;18.156;2022-12-10T12:09:55;14.20;;;7.40;;
76552;SDS011;65395;53.168;18.156;2022-12-10T12:12:50;16.00;;;8.10;;
76552;SDS011;65395;53.168;18.156;2022-12-10T12:15:27;14.60;;;7.20;;
76552;SDS011;65395;53.168;18.156;2022-12-10T12:18:04;14.30;;;6.80;;
76552;SDS011;65395;53.168;18.156;2022-12-10T12:20:42;13.20;;;6.60;;
76552;SDS011;65395;53.168;18.156;2022-12-10T12:23:15;15.30;;;7.30;;
76552;SDS011;65395;53.168;18.156;2022-12-10T12:26:00;16.80;;;8.70;;
76552;SDS011;65395;53.168;18.156;2022-12-10T12:28:35;18.50;;;8.30;;
76552;SDS011;65395;53.168;18.156;2022-12-10T12:31:15;16.40;;;8.50;;
76552;SDS011;65395;53.168;18.156;2022-12-10T12:33:54;20.90;;;9.00;;
76552;SDS011;65395;53.168;18.156;2022-12-10T12:36:28;19.10;;;8.80;;
76552;SDS011;65395;53.168;18.156;2022-12-10T12:41:53;17.50;;;8.90;;
76552;SDS011;65395;53.168;18.156;2022-12-10T12:47:34;19.20;;;9.30;;
76552;SDS011;65395;53.168;18.156;2022-12-10T12:50:17;21.60;;;9.80;;
76552;SDS011;65395;53.168;18.156;2022-12-10T12:52:52;20.30;;;9.10;;
76552;SDS011;65395;53.168;18.156;2022-12-10T13:00:51;21.70;;;9.70;;
76552;SDS011;65395;53.168;18.156;2022-12-10T13:03:39;22.20;;;9.60;;
76552;SDS011;65395;53.168;18.156;2022-12-10T13:06:11;27.00;;;10.50;;
76552;SDS011;65395;53.168;18.156;2022-12-10T13:20:32;21.90;;;9.80;;
76552;SDS011;65395;53.168;18.156;2022-12-10T13:23:04;22.50;;;10.00;;
76552;SDS011;65395;53.168;18.156;2022-12-10T13:25:56;22.10;;;10.60;;
76552;SDS011;65395;53.168;18.156;2022-12-10T13:28:28;22.30;;;10.60;;
76552;SDS011;65395;53.168;18.156;2022-12-10T13:34:10;25.90;;;11.90;;
76552;SDS011;65395;53.168;18.156;2022-12-10T13:39:47;28.50;;;13.20;;
76552;SDS011;65395;53.168;18.156;2022-12-10T13:42:25;30.60;;;13.20;;
76552;SDS011;65395;53.168;18.156;2022-12-10T13:45:06;26.00;;;12.10;;
76552;SDS011;65395;53.168;18.156;2022-12-10T13:47:52;23.80;;;10.70;;
76552;SDS011;65395;53.168;18.156;2022-12-10T13:53:21;20.60;;;10.10;;
76552;SDS011;65395;53.168;18.156;2022-12-10T14:01:35;29.20;;;13.10;;
76552;SDS011;65395;53.168;18.156;2022-12-10T14:04:21;30.00;;;12.70;;
76552;SDS011;65395;53.168;18.156;2022-12-10T14:07:02;29.70;;;12.00;;
76552;SDS011;65395;53.168;18.156;2022-12-10T14:09:30;28.00;;;13.40;;
76552;SDS011;65395;53.168;18.156;2022-12-10T14:12:01;26.60;;;12.20;;
76552;SDS011;65395;53.168;18.156;2022-12-10T14:14:35;27.50;;;11.90;;
76552;SDS011;65395;53.168;18.156;2022-12-10T14:17:09;22.20;;;10.50;;
76552;SDS011;65395;53.168;18.156;2022-12-10T14:19:41;22.70;;;11.00;;
76552;SDS011;65395;53.168;18.156;2022-12-10T14:22:13;25.80;;;10.20;;
76552;SDS011;65395;53.168;18.156;2022-12-10T14:24:44;21.80;;;10.20;;
76552;SDS011;65395;53.168;18.156;2022-12-10T14:27:17;24.90;;;11.50;;
76552;SDS011;65395;53.168;18.156;2022-12-10T14:29:46;22.20;;;10.00;;
76552;SDS011;65395;53.168;18.156;2022-12-10T14:32:16;26.40;;;11.20;;
76552;SDS011;65395;53.168;18.156;2022-12-10T14:34:50;23.20;;;10.20;;
76552;SDS011;65395;53.168;18.156;2022-12-10T14:37:23;24.40;;;12.10;;
76552;SDS011;65395;53.168;18.156;2022-12-10T14:39:52;33.10;;;13.40;;
76552;SDS011;65395;53.168;18.156;2022-12-10T14:42:20;31.00;;;12.50;;
76552;SDS011;65395;53.168;18.156;2022-12-10T14:44:49;27.60;;;12.70;;
76552;SDS011;65395;53.168;18.156;2022-12-10T14:47:22;27.00;;;12.30;;
76552;SDS011;65395;53.168;18.156;2022-12-10T14:49:51;23.20;;;11.00;;
76552;SDS011;65395;53.168;18.156;2022-12-10T14:52:21;27.70;;;12.50;;
76552;SDS011;65395;53.168;18.156;2022-12-10T14:54:50;25.90;;;11.70;;
76552;SDS011;65395;53.168;18.156;2022-12-10T14:57:21;25.00;;;11.70;;
76552;SDS011;65395;53.168;18.156;2022-12-10T14:59:58;25.80;;;11.00;;
76552;SDS011;65395;53.168;18.156;2022-12-10T15:02:39;23.70;;;11.00;;
76552;SDS011;65395;53.168;18.156;2022-12-10T15:05:10;23.40;;;11.10;;
76552;SDS011;65395;53.168;18.156;2022-12-10T15:07:39;24.50;;;10.70;;
76552;SDS011;65395;53.168;18.156;2022-12-10T15:10:07;24.20;;;11.10;;
76552;SDS011;65395;53.168;18.156;2022-12-10T15:12:44;23.30;;;10.40;;
76552;SDS011;65395;53.168;18.156;2022-12-10T15:15:18;24.90;;;11.10;;
76552;SDS011;65395;53.168;18.156;2022-12-10T15:18:15;25.10;;;11.50;;
76552;SDS011;65395;53.168;18.156;2022-12-10T15:20:46;39.40;;;16.00;;
76552;SDS011;65395;53.168;18.156;2022-12-10T15:23:18;26.40;;;11.40;;
76552;SDS011;65395;53.168;18.156;2022-12-10T15:28:42;23.00;;;11.30;;
76552;SDS011;65395;53.168;18.156;2022-12-10T15:31:10;22.60;;;10.60;;
76552;SDS011;65395;53.168;18.156;2022-12-10T15:33:52;23.90;;;10.50;;
76552;SDS011;65395;53.168;18.156;2022-12-10T15:39:23;26.90;;;11.60;;
76552;SDS011;65395;53.168;18.156;2022-12-10T15:41:52;25.10;;;11.20;;
76552;SDS011;65395;53.168;18.156;2022-12-10T15:49:46;22.40;;;10.90;;
76552;SDS011;65395;53.168;18.156;2022-12-10T15:52:16;22.90;;;10.90;;
76552;SDS011;65395;53.168;18.156;2022-12-10T15:54:47;22.40;;;10.30;;
76552;SDS011;65395;53.168;18.156;2022-12-10T15:57:18;24.40;;;11.10;;
76552;SDS011;65395;53.168;18.156;2022-12-10T15:59:47;30.90;;;12.40;;
76552;SDS011;65395;53.168;18.156;2022-12-10T16:05:04;39.10;;;14.10;;